Nearby METAR Reports

 

KMTN - Baltimore/Martin, Maryland, USA
Distance from station: SSE 8mi, 13km
Updated: Tue, 30-Sep-2014 6:55am EDT
Mist, Mostly cloudy
Mist, Mostly cloudy
 Wind from calm
Wind: Calm
Temperature: 66°F , 19°C
Dew Point: 66°F , 19°C
Humidity: 100%
Barometer: 29.94 inHg , 1013.9 hPa
Summary: Mist
Clouds: Mostly cloudy
Visibility: 2 miles , 3 km
Cloud details: Mostly cloudy 800 ft
2014/09/30 10:55 KMTN 301055Z 00000KT 2SM BR BKN008 19/19 A2994
KDMH - Baltimore/Dwntwn, Maryland, USA
Distance from station: SW 12mi, 19km
Updated: Tue, 30-Sep-2014 6:54am EDT

 
Temperature: 66°F , 19°C
Dew Point: 63°F , 17°C
Humidity: 88%
Barometer: 29.92 inHg , 1013.2 hPa
2014/09/30 10:54 KDMH 301054Z AUTO 19/17 A2992 RMK AO1 SLP132 T01890172
 
KBWI - Balto/Wash Intl, Maryland, USA
Distance from station: SSW 20mi, 33km
Updated: Tue, 30-Sep-2014 6:54am EDT
Mist, Overcast
Mist, Overcast
 Wind from SSE
Wind: SSE 3 mph , 6 km/h
Temperature: 64°F , 18°C
Dew Point: 63°F , 17°C
Humidity: 94%
Barometer: 29.92 inHg , 1013.2 hPa
Summary: Mist
Clouds: Overcast
Visibility: 5 miles , 8 km
Cloud details: Mostly cloudy 1100 ft
Overcast 12000 ft
2014/09/30 10:54 KBWI 301054Z 15003KT 5SM BR BKN011 OVC120 18/17 A2992 RMK AO2 SLP130 T01780167
KDMW - Carroll Cnty, Maryland, USA
Distance from station: WNW 30mi, 48km
Updated: Tue, 30-Sep-2014 7:30am EDT
Overcast
Overcast
 Wind from S
Wind: S 3 mph , 6 km/h
Temperature: 63°F , 17°C
Dew Point: 61°F , 16°C
Humidity: 94%
Barometer: 29.94 inHg , 1013.9 hPa
Clouds: Overcast
Visibility: 7 miles , 11 km
Cloud details: Overcast 700 ft
2014/09/30 11:30 KDMW 301130Z AUTO 17003KT 7SM OVC007 17/16 A2994 RMK AO2
 
KNAK - Annapolis/Naval, Maryland, USA
Distance from station: S 30mi, 48km
Updated: Tue, 30-Sep-2014 7:26am EDT
Mostly cloudy
Mostly cloudy
 Wind from S
Wind: S 6 mph , 9 km/h
Temperature: 64°F , 18°C
Dew Point: 63°F , 17°C
Humidity: 94%
Barometer: 29.93 inHg , 1013.5 hPa
Clouds: Mostly cloudy
Visibility: 8 miles , 13 km
Cloud details: Mostly cloudy 1100 ft
2014/09/30 11:26 KNAK 301126Z AUTO 17005KT 8SM BKN011 18/17 A2993 RMK AO2 T01830167 PNO $
KW29 - Stevensville, Maryland, USA
Distance from station: SSE 31mi, 50km
Updated: Tue, 30-Sep-2014 7:29am EDT
Mist
Mist
 Wind from calm
Wind: Calm
Temperature: 63°F , 17°C
Dew Point: 63°F , 17°C
Humidity: 100%
Barometer: 29.94 inHg , 1013.9 hPa
Summary: Mist
Visibility: 4 miles , 6 km
2014/09/30 11:29 KW29 301129Z AUTO 00000KT 4SM BR 17/17 A2994 RMK AO1
 
KCGS - College Park, Maryland, USA
Distance from station: SW 38mi, 61km
Updated: Tue, 30-Sep-2014 7:20am EDT
Overcast
Overcast
 Wind from calm
Wind: Calm
Temperature: 66°F , 19°C
Dew Point: 63°F , 17°C
Humidity: 88%
Barometer: 29.93 inHg , 1013.5 hPa
Clouds: Overcast
Visibility: 10 miles , 16 km
Cloud details: Overcast 1700 ft
2014/09/30 11:20 KCGS 301120Z AUTO 00000KT 10SM OVC017 19/17 A2993 RMK AO1
KGAI - Gaithersburg, Maryland, USA
Distance from station: WSW 40mi, 65km
Updated: Tue, 30-Sep-2014 7:35am EDT
Overcast
Overcast
 Wind from calm
Wind: Calm
Temperature: 63°F , 17°C
Dew Point: 61°F , 16°C
Humidity: 94%
Barometer: 29.97 inHg , 1014.9 hPa
Clouds: Overcast
Visibility: 10 miles , 16 km
Cloud details: Overcast 900 ft
2014/09/30 11:35 KGAI 301135Z 00000KT 10SM OVC009 17/16 A2997 RMK AO1
 
KTHV - York, Pennsylvania, USA
Distance from station: NNW 40mi, 65km
Updated: Tue, 30-Sep-2014 7:37am EDT
Mist, Overcast
Mist, Overcast
 Wind from calm
Wind: Calm
Temperature: 59°F , 15°C
Dew Point: 57°F , 14°C
Humidity: 94%
Barometer: 29.93 inHg , 1013.5 hPa
Summary: Mist
Clouds: Overcast
Visibility: 2 miles , 3 km
Cloud details: Overcast 700 ft
2014/09/30 11:37 KTHV 301137Z AUTO 00000KT 2SM BR OVC007 15/14 A2993 RMK AO2 T01500144
KFDK - Frederick, Maryland, USA
Distance from station: W 47mi, 75km
Updated: Tue, 30-Sep-2014 7:45am EDT
Mist, Overcast
Mist, Overcast
 Wind from calm
Wind: Calm
Temperature: 66°F , 19°C
Dew Point: 64°F , 18°C
Humidity: 94%
Summary: Mist
Clouds: Overcast
Visibility: 4 miles , 6 km
Cloud details: Overcast 600 ft
2014/09/30 11:45 KFDK 301145Z 00000KT 4SM BR OVC006 19/18 A29
 
KESN - Easton/Newnam, Maryland, USA
Distance from station: SSE 48mi, 78km
Updated: Tue, 30-Sep-2014 6:50am EDT

 Wind from calm
Wind: Calm
Temperature: 61°F , 16°C
Dew Point: 61°F , 16°C
Humidity: 100%
Barometer: 29.97 inHg , 1014.9 hPa
Visibility: 5 miles , 8 km
2014/09/30 10:50 KESN 301050Z 00000KT 5SM 16/16 A2997
KDCA - Washington/Natl, Washington D.c., USA
Distance from station: SW 49mi, 79km
Updated: Tue, 30-Sep-2014 6:52am EDT
Overcast
Overcast
 Wind from calm
Wind: Calm
Temperature: 68°F , 20°C
Dew Point: 63°F , 17°C
Humidity: 83%
Barometer: 29.92 inHg , 1013.2 hPa
Clouds: Overcast
Visibility: 7 miles , 11 km
Cloud details: Overcast 1100 ft
2014/09/30 10:52 KDCA 301052Z 00000KT 7SM OVC011 20/17 A2992 RMK AO2 SLP133 T02000167 $
 
KLNS - Lancaster, Pennsylvania, USA
Distance from station: N 49mi, 79km
Updated: Tue, 30-Sep-2014 6:53am EDT
Fog, Overcast
Fog, Overcast
 Wind from E
Wind: E 3 mph , 6 km/h
Temperature: 61°F , 16°C
Dew Point: 61°F , 16°C
Humidity: 100%
Barometer: 29.92 inHg , 1013.2 hPa
Summary: Fog
Clouds: Overcast
Visibility: 1/4 mile , 2 km
Cloud details: Overcast 200 ft
2014/09/30 10:53 KLNS 301053Z 10003KT 1/4SM FG VV002 16/16 A2992 RMK AO2 SLP132 T01560156
KILG - Wilmington, Delaware, USA
Distance from station: ENE 50mi, 81km
Updated: Tue, 30-Sep-2014 6:51am EDT
Mostly cloudy
Mostly cloudy
 Wind from SSE
Wind: SSE 3 mph , 6 km/h
Temperature: 64°F , 18°C
Dew Point: 63°F , 17°C
Humidity: 94%
Barometer: 29.94 inHg , 1013.9 hPa
Clouds: Mostly cloudy
Visibility: 10 miles , 16 km
Cloud details: Few Clouds 7000 ft
Mostly cloudy 12000 ft
2014/09/30 10:51 KILG 301051Z AUTO 16003KT 10SM FEW070 BKN120 18/17 A2994 RMK AO2 RAE41 SLP138 P0000 T01780167 TSNO